Time;durP1;ratioP1;P1;durP2;ratioP2;P2;SDS_P1;SDS_P2;PMS_P1;PMS_P2;Temp;Humidity;BMP_temperature;BMP_pressure;BME280_temperature;BME280_humidity;BME280_pressure;Samples;Min_cycle;Max_cycle;Signal;HPM_P1;HPM_P2
2023/05/16 00:02:31;;;;;;;13.37;3.00;;;12.00;99.90;;;;;;5002885;28;20731;-33
2023/05/16 00:05:03;;;;;;;11.87;3.07;;;12.00;99.90;;;;;;4993880;28;20225;-32
2023/05/16 00:07:31;;;;;;;10.93;3.00;;;12.00;99.90;;;;;;5005182;28;20200;-33
2023/05/16 00:09:59;;;;;;;9.90;2.80;;;12.00;99.90;;;;;;4986621;28;20633;-33
2023/05/16 00:12:29;;;;;;;13.27;2.87;;;12.00;99.90;;;;;;4985910;28;20234;-33
2023/05/16 00:14:58;;;;;;;15.60;2.77;;;12.00;99.90;;;;;;4985015;28;20401;-33
2023/05/16 00:17:27;;;;;;;16.53;3.00;;;11.90;99.90;;;;;;4986272;28;20263;-32
2023/05/16 00:19:57;;;;;;;10.20;2.53;;;11.90;99.90;;;;;;4985327;28;20607;-33
2023/05/16 00:22:24;;;;;;;14.37;3.00;;;11.90;99.90;;;;;;4998421;28;20719;-33
2023/05/16 00:24:54;;;;;;;10.53;2.43;;;11.90;99.90;;;;;;4984271;28;20209;-32
2023/05/16 00:27:24;;;;;;;15.83;2.60;;;11.80;99.90;;;;;;4985659;28;20203;-32
2023/05/16 00:29:54;;;;;;;13.03;2.97;;;11.80;99.90;;;;;;5003998;28;20218;-33
2023/05/16 00:32:24;;;;;;;14.10;2.93;;;11.80;99.90;;;;;;5001915;28;20318;-32
2023/05/16 00:34:54;;;;;;;9.73;2.20;;;11.70;99.90;;;;;;4985367;28;20267;-33
2023/05/16 00:37:23;;;;;;;16.03;2.77;;;11.80;99.90;;;;;;4985475;28;20302;-33
2023/05/16 00:39:50;;;;;;;16.47;2.50;;;11.70;99.90;;;;;;4984247;28;20229;-33
2023/05/16 00:42:19;;;;;;;13.33;2.37;;;11.70;99.90;;;;;;4983638;28;20238;-33
2023/05/16 00:44:49;;;;;;;16.93;2.50;;;11.70;99.90;;;;;;4994610;28;20637;-33
2023/05/16 00:47:19;;;;;;;9.77;2.80;;;11.60;99.90;;;;;;5003054;28;20206;-32
2023/05/16 00:49:46;;;;;;;10.57;2.50;;;11.60;99.90;;;;;;4985194;28;20202;-33
2023/05/16 00:52:16;;;;;;;12.83;2.27;;;11.50;99.90;;;;;;4987699;28;20237;-32
2023/05/16 00:54:46;;;;;;;15.00;2.93;;;11.50;99.90;;;;;;5002122;28;20205;-33
2023/05/16 00:57:16;;;;;;;12.30;2.47;;;11.50;99.90;;;;;;5002611;28;20702;-32
2023/05/16 00:59:49;;;;;;;13.20;2.70;;;11.50;99.90;;;;;;4996862;28;20201;-33
2023/05/16 01:02:19;;;;;;;10.10;2.37;;;11.50;99.90;;;;;;4992383;28;20965;-32
2023/05/16 01:04:51;;;;;;;9.07;2.37;;;11.40;99.90;;;;;;4990615;28;20307;-33
2023/05/16 01:07:20;;;;;;;13.00;2.40;;;11.40;99.90;;;;;;4995407;28;20245;-33
2023/05/16 01:09:52;;;;;;;12.87;2.63;;;11.30;99.90;;;;;;4990548;28;20242;-32
2023/05/16 01:12:27;;;;;;;14.23;3.00;;;11.30;99.90;;;;;;5001594;28;20308;-33
2023/05/16 01:15:05;;;;;;;11.90;2.33;;;11.30;99.90;;;;;;5003672;28;20324;-33
2023/05/16 01:17:35;;;;;;;9.93;2.10;;;11.30;99.90;;;;;;4990752;28;20571;-33
2023/05/16 01:20:15;;;;;;;13.97;2.40;;;11.30;99.90;;;;;;4986532;28;20760;-32
2023/05/16 01:22:56;;;;;;;6.17;1.77;;;11.20;99.90;;;;;;4993970;28;20232;-32
2023/05/16 01:25:44;;;;;;;12.10;2.80;;;11.20;99.90;;;;;;5003796;28;20236;-32
2023/05/16 01:28:18;;;;;;;18.27;3.00;;;11.20;99.90;;;;;;4986880;28;20218;-33
2023/05/16 01:30:50;;;;;;;10.80;2.47;;;11.10;99.90;;;;;;4983768;28;20243;-32
2023/05/16 01:33:25;;;;;;;10.20;2.17;;;11.10;99.90;;;;;;4981421;28;20325;-32
2023/05/16 01:36:02;;;;;;;9.33;1.70;;;11.10;99.90;;;;;;4982550;28;20206;-33
2023/05/16 01:38:59;;;;;;;9.90;2.70;;;11.10;99.90;;;;;;4995092;28;20295;-32
2023/05/16 01:41:26;;;;;;;11.30;2.73;;;11.10;99.90;;;;;;5000593;28;20225;-32
2023/05/16 01:44:01;;;;;;;9.27;2.33;;;11.00;99.90;;;;;;5000111;28;20220;-32
2023/05/16 01:46:37;;;;;;;12.53;2.90;;;11.00;99.90;;;;;;4988581;28;20611;-32
2023/05/16 01:49:24;;;;;;;12.83;2.83;;;11.00;99.90;;;;;;4999023;28;20202;-32
2023/05/16 01:51:56;;;;;;;8.13;2.23;;;11.00;99.90;;;;;;4984461;28;20782;-33
2023/05/16 01:54:28;;;;;;;12.67;2.57;;;11.00;99.90;;;;;;5002322;28;20224;-33
2023/05/16 01:56:59;;;;;;;8.93;2.47;;;10.90;99.90;;;;;;5004176;28;20350;-33
2023/05/16 01:59:29;;;;;;;8.60;2.00;;;10.90;99.90;;;;;;5001485;28;20222;-32
2023/05/16 02:01:57;;;;;;;10.97;2.27;;;10.90;99.90;;;;;;5002704;28;20225;-33
2023/05/16 02:04:26;;;;;;;12.50;2.40;;;10.90;99.90;;;;;;4986446;28;20301;-32
2023/05/16 02:06:56;;;;;;;14.80;2.20;;;10.80;99.90;;;;;;4984249;28;20334;-32
2023/05/16 02:09:26;;;;;;;14.70;3.17;;;10.90;99.90;;;;;;4967055;28;20312;-32
2023/05/16 02:11:53;;;;;;;8.10;2.20;;;10.80;99.90;;;;;;4984468;28;20313;-32
2023/05/16 02:14:24;;;;;;;9.57;2.53;;;10.80;99.90;;;;;;4986527;28;20276;-32
2023/05/16 02:16:51;;;;;;;13.83;2.30;;;10.80;99.90;;;;;;4987703;28;20660;-32
2023/05/16 02:19:21;;;;;;;10.17;2.00;;;10.70;99.90;;;;;;4986974;28;20292;-32
2023/05/16 02:21:51;;;;;;;13.70;2.47;;;10.70;99.90;;;;;;4988505;28;20865;-33
2023/05/16 02:24:19;;;;;;;15.07;2.40;;;10.70;99.90;;;;;;4994220;28;20276;-32
2023/05/16 02:26:49;;;;;;;11.77;2.30;;;10.70;99.90;;;;;;5004977;28;20213;-33
2023/05/16 02:29:16;;;;;;;13.73;2.60;;;10.70;99.90;;;;;;5006160;28;20206;-32
2023/05/16 02:31:43;;;;;;;9.60;3.17;;;10.70;99.90;;;;;;5005523;28;20781;-32
2023/05/16 02:34:10;;;;;;;12.73;2.47;;;10.60;99.90;;;;;;4996366;28;20301;-32
2023/05/16 02:36:40;;;;;;;9.23;2.03;;;10.60;99.90;;;;;;4999337;28;20251;-32
2023/05/16 02:39:10;;;;;;;11.20;2.40;;;10.60;99.90;;;;;;4979212;28;20260;-33
2023/05/16 02:41:37;;;;;;;12.27;2.53;;;10.50;99.90;;;;;;4969840;28;20469;-32
2023/05/16 02:44:04;;;;;;;11.13;2.40;;;10.60;99.90;;;;;;4986642;28;20405;-32
2023/05/16 02:46:37;;;;;;;8.63;2.17;;;10.60;99.90;;;;;;4985838;28;20206;-33
2023/05/16 02:49:05;;;;;;;7.83;1.93;;;10.60;99.90;;;;;;4987721;28;20194;-32
2023/05/16 02:51:37;;;;;;;10.77;2.30;;;10.50;99.90;;;;;;4985797;28;20194;-32
2023/05/16 02:54:08;;;;;;;10.23;1.87;;;10.50;99.90;;;;;;4996357;28;20229;-32
2023/05/16 02:56:38;;;;;;;6.63;2.00;;;10.50;99.90;;;;;;4986987;28;20230;-32
2023/05/16 02:59:08;;;;;;;12.23;1.97;;;10.50;99.90;;;;;;4985341;28;20741;-32
2023/05/16 03:01:35;;;;;;;13.27;2.73;;;10.50;99.90;;;;;;4987833;28;20269;-33
2023/05/16 03:04:02;;;;;;;12.80;2.80;;;10.50;99.90;;;;;;5000657;28;20202;-33
2023/05/16 03:06:32;;;;;;;10.90;3.37;;;10.50;99.90;;;;;;5006536;28;20289;-33
2023/05/16 03:09:01;;;;;;;10.60;2.30;;;10.50;99.90;;;;;;5000392;28;20308;-32
2023/05/16 03:11:29;;;;;;;13.73;2.33;;;10.50;99.90;;;;;;5000739;28;20227;-32
2023/05/16 03:13:58;;;;;;;12.07;2.43;;;10.40;99.90;;;;;;4984872;28;20305;-32
2023/05/16 03:16:31;;;;;;;8.40;2.17;;;10.40;99.90;;;;;;4985380;28;21001;-32
2023/05/16 03:18:58;;;;;;;8.63;2.30;;;10.40;99.90;;;;;;4987502;28;20222;-32
2023/05/16 03:21:28;;;;;;;16.97;2.63;;;10.40;99.90;;;;;;4984800;28;20684;-32
2023/05/16 03:23:55;;;;;;;11.17;2.10;;;10.30;99.90;;;;;;4984333;28;20208;-33
2023/05/16 03:26:24;;;;;;;11.73;2.63;;;10.30;99.90;;;;;;4984562;28;20198;-32
2023/05/16 03:28:56;;;;;;;13.50;2.57;;;10.30;99.90;;;;;;4986170;28;20249;-32
2023/05/16 03:31:26;;;;;;;9.60;2.23;;;10.30;99.90;;;;;;4985554;28;20241;-33
2023/05/16 03:33:53;;;;;;;9.97;2.20;;;10.20;99.90;;;;;;4986269;28;20280;-32
2023/05/16 03:36:21;;;;;;;7.53;1.90;;;10.20;99.90;;;;;;4983702;28;20233;-33
2023/05/16 03:38:51;;;;;;;7.33;2.47;;;10.20;99.90;;;;;;4993524;28;20220;-32
2023/05/16 03:41:21;;;;;;;8.50;2.20;;;10.20;99.90;;;;;;5004839;28;20600;-32
2023/05/16 03:43:50;;;;;;;11.33;2.40;;;10.20;99.90;;;;;;4998264;28;20210;-32
2023/05/16 03:46:17;;;;;;;11.10;2.40;;;10.10;99.90;;;;;;4997145;28;20284;-32
2023/05/16 03:48:45;;;;;;;10.73;2.50;;;10.20;99.90;;;;;;4997035;28;20197;-33
2023/05/16 03:51:12;;;;;;;11.03;2.43;;;10.10;99.90;;;;;;4986354;28;20205;-33
2023/05/16 03:53:41;;;;;;;9.27;2.03;;;10.10;99.90;;;;;;5001763;28;20229;-32
2023/05/16 03:56:11;;;;;;;7.80;2.20;;;10.10;99.90;;;;;;5002000;28;20204;-33
2023/05/16 03:58:38;;;;;;;9.90;2.30;;;10.10;99.90;;;;;;5003366;28;20571;-32
2023/05/16 04:01:05;;;;;;;9.57;2.37;;;10.10;99.90;;;;;;5003685;28;20288;-33
2023/05/16 04:03:32;;;;;;;6.60;2.10;;;10.10;99.90;;;;;;4986364;28;20228;-32
2023/05/16 04:06:02;;;;;;;8.70;2.13;;;10.10;99.90;;;;;;4983346;28;20280;-33
2023/05/16 04:08:31;;;;;;;12.80;2.70;;;10.10;99.90;;;;;;4994389;28;20209;-33
2023/05/16 04:11:04;;;;;;;10.13;2.30;;;10.10;99.90;;;;;;4987747;28;20571;-33
2023/05/16 04:13:35;;;;;;;9.47;2.53;;;10.10;99.90;;;;;;4993496;28;20221;-33
2023/05/16 04:16:03;;;;;;;9.77;2.17;;;10.10;99.90;;;;;;4984631;28;20620;-33
2023/05/16 04:18:32;;;;;;;9.20;2.47;;;10.10;99.90;;;;;;4984572;28;20691;-32
2023/05/16 04:21:00;;;;;;;9.67;2.63;;;10.10;99.90;;;;;;4985021;28;20221;-33
2023/05/16 04:23:29;;;;;;;13.37;2.17;;;10.10;99.90;;;;;;4983693;28;20417;-33
2023/05/16 04:26:00;;;;;;;9.40;2.97;;;10.10;99.90;;;;;;4983849;28;20703;-32
2023/05/16 04:28:27;;;;;;;11.40;2.80;;;10.10;99.90;;;;;;4991547;28;20237;-32
2023/05/16 04:30:55;;;;;;;11.73;3.23;;;10.10;99.90;;;;;;4989046;28;20658;-33
2023/05/16 04:33:22;;;;;;;11.57;2.93;;;10.10;99.90;;;;;;5002031;28;20308;-33
2023/05/16 04:35:49;;;;;;;12.77;2.43;;;10.10;99.90;;;;;;5001148;28;20615;-33
2023/05/16 04:38:18;;;;;;;11.60;2.17;;;10.10;99.90;;;;;;4988086;28;20235;-32
2023/05/16 04:40:45;;;;;;;12.60;2.33;;;10.10;99.90;;;;;;5004353;28;20209;-33
2023/05/16 04:43:15;;;;;;;9.53;2.20;;;10.20;99.90;;;;;;5002554;28;20582;-32
2023/05/16 04:45:50;;;;;;;8.37;2.30;;;10.20;99.90;;;;;;5003488;28;20287;-32
2023/05/16 04:48:17;;;;;;;13.80;3.10;;;10.20;99.90;;;;;;4987121;28;20651;-33
2023/05/16 04:50:44;;;;;;;7.27;2.17;;;10.20;99.90;;;;;;4994210;28;20297;-32
2023/05/16 04:53:14;;;;;;;11.97;2.40;;;10.20;99.90;;;;;;4983874;28;20289;-32
2023/05/16 04:55:41;;;;;;;13.07;2.70;;;10.20;99.90;;;;;;4988307;28;20269;-33
2023/05/16 04:58:08;;;;;;;8.53;1.80;;;10.20;99.90;;;;;;5000309;28;20239;-32
2023/05/16 05:00:38;;;;;;;8.73;2.07;;;10.20;99.90;;;;;;4994719;28;20210;-33
2023/05/16 05:03:06;;;;;;;10.93;2.03;;;10.30;99.90;;;;;;4983086;28;20209;-32
2023/05/16 05:05:35;;;;;;;8.33;2.50;;;10.30;99.90;;;;;;4984804;28;20218;-32
2023/05/16 05:08:11;;;;;;;15.60;2.40;;;10.30;99.90;;;;;;4998440;28;20364;-32
2023/05/16 05:10:40;;;;;;;8.30;2.30;;;10.30;99.90;;;;;;4986099;28;20721;-32
2023/05/16 05:13:09;;;;;;;10.93;2.33;;;10.30;99.90;;;;;;4987605;28;20222;-32
2023/05/16 05:15:39;;;;;;;7.30;2.00;;;10.30;99.90;;;;;;4988510;28;20222;-33
2023/05/16 05:18:06;;;;;;;9.70;2.47;;;10.30;99.90;;;;;;4983725;28;20213;-32
2023/05/16 05:20:37;;;;;;;11.37;2.30;;;10.40;99.90;;;;;;4994060;28;20623;-33
2023/05/16 05:23:09;;;;;;;10.70;2.70;;;10.40;99.90;;;;;;4989138;28;20680;-33
2023/05/16 05:25:39;;;;;;;8.47;2.07;;;10.40;99.90;;;;;;5001226;28;20300;-33
2023/05/16 05:28:11;;;;;;;10.53;2.70;;;10.40;99.90;;;;;;4995547;28;20292;-33
2023/05/16 05:30:38;;;;;;;9.83;2.37;;;10.40;99.90;;;;;;5002255;28;20249;-32
2023/05/16 05:33:13;;;;;;;9.23;2.33;;;10.50;99.90;;;;;;5001041;28;20789;-32
2023/05/16 05:35:45;;;;;;;12.40;2.13;;;10.60;99.90;;;;;;4990246;28;20202;-32
2023/05/16 05:38:15;;;;;;;12.30;2.73;;;10.60;99.90;;;;;;4992334;28;20227;-32
2023/05/16 05:40:44;;;;;;;11.37;2.53;;;10.60;99.90;;;;;;5000956;28;20213;-32
2023/05/16 05:43:13;;;;;;;10.93;2.13;;;10.60;99.90;;;;;;5002073;28;20232;-32
2023/05/16 05:45:41;;;;;;;12.57;2.60;;;10.60;99.90;;;;;;4996805;28;20766;-32
2023/05/16 05:48:09;;;;;;;12.20;2.23;;;10.70;99.90;;;;;;5002525;28;20213;-32
2023/05/16 05:50:37;;;;;;;9.83;2.23;;;10.70;99.90;;;;;;5003780;28;20475;-32
2023/05/16 05:53:13;;;;;;;12.07;2.63;;;10.70;99.90;;;;;;4997290;28;20234;-32
2023/05/16 05:55:42;;;;;;;6.87;1.93;;;10.80;99.90;;;;;;4990926;28;20570;-32
2023/05/16 05:58:11;;;;;;;8.93;2.37;;;10.80;99.90;;;;;;4989003;28;20321;-33
2023/05/16 06:00:45;;;;;;;9.83;1.80;;;10.80;99.90;;;;;;4991680;28;20309;-32
2023/05/16 06:03:13;;;;;;;10.87;1.80;;;10.90;99.90;;;;;;4999290;28;20300;-33
2023/05/16 06:05:42;;;;;;;13.07;2.30;;;10.90;99.90;;;;;;4999014;28;20197;-33
2023/05/16 06:08:10;;;;;;;12.17;2.37;;;10.90;99.90;;;;;;4988969;28;20214;-32
2023/05/16 06:10:37;;;;;;;9.73;2.60;;;11.00;99.90;;;;;;4992782;28;21157;-32
2023/05/16 06:13:06;;;;;;;12.60;2.40;;;11.00;99.90;;;;;;4995052;28;20221;-32
2023/05/16 06:15:36;;;;;;;8.73;1.93;;;11.00;99.90;;;;;;4999918;28;20206;-32
2023/05/16 06:18:03;;;;;;;9.97;2.30;;;11.10;99.90;;;;;;4990920;28;20287;-32
2023/05/16 06:20:34;;;;;;;10.87;2.83;;;11.10;99.90;;;;;;4993515;28;20555;-32
2023/05/16 06:23:09;;;;;;;11.50;2.40;;;11.10;99.90;;;;;;4993027;28;20199;-32
2023/05/16 06:25:37;;;;;;;9.10;1.90;;;11.20;99.90;;;;;;4999362;28;20721;-33
2023/05/16 06:28:08;;;;;;;12.13;2.33;;;11.20;99.90;;;;;;4998086;28;20234;-32
2023/05/16 06:30:36;;;;;;;9.83;2.03;;;11.20;99.90;;;;;;4988743;28;20337;-32
2023/05/16 06:33:06;;;;;;;11.80;2.40;;;11.30;99.90;;;;;;4995728;28;20234;-32
2023/05/16 06:35:35;;;;;;;7.83;2.53;;;11.30;99.90;;;;;;4999579;28;20217;-32
2023/05/16 06:38:02;;;;;;;9.20;2.10;;;11.30;99.90;;;;;;4996981;28;20637;-32
2023/05/16 06:40:29;;;;;;;8.70;2.20;;;11.40;99.90;;;;;;4999622;28;20210;-32
2023/05/16 06:42:57;;;;;;;9.10;1.90;;;11.40;99.90;;;;;;4987820;28;21804;-33
2023/05/16 06:45:29;;;;;;;8.73;2.13;;;11.40;99.90;;;;;;4988197;28;20222;-32
2023/05/16 06:47:59;;;;;;;10.77;2.27;;;11.50;99.90;;;;;;4993894;28;20610;-32
2023/05/16 06:50:28;;;;;;;8.17;1.80;;;11.50;99.90;;;;;;4997236;28;20319;-33
2023/05/16 06:52:56;;;;;;;9.67;1.73;;;11.50;99.90;;;;;;4989370;28;20297;-33
2023/05/16 06:55:23;;;;;;;12.83;2.20;;;11.50;99.90;;;;;;4987440;28;20194;-33
2023/05/16 06:57:50;;;;;;;8.43;1.90;;;11.60;99.90;;;;;;5004718;28;20242;-32
2023/05/16 07:00:18;;;;;;;7.17;1.70;;;11.60;99.90;;;;;;4995254;28;20205;-33
2023/05/16 07:02:45;;;;;;;9.67;1.80;;;11.60;99.90;;;;;;5000401;28;20328;-32
2023/05/16 07:05:12;;;;;;;9.23;1.90;;;11.60;99.90;;;;;;4996749;28;20656;-32
2023/05/16 07:07:42;;;;;;;8.97;1.80;;;11.70;99.90;;;;;;4987280;28;20252;-33
2023/05/16 07:10:10;;;;;;;11.37;2.10;;;11.70;99.90;;;;;;4995397;28;20627;-32
2023/05/16 07:12:41;;;;;;;5.70;1.40;;;11.90;99.90;;;;;;4995806;28;20201;-32
2023/05/16 07:15:13;;;;;;;8.93;1.97;;;11.90;99.90;;;;;;5005336;28;20201;-32
2023/05/16 07:17:40;;;;;;;12.00;1.93;;;11.90;99.90;;;;;;4999983;28;20241;-33
2023/05/16 07:20:12;;;;;;;12.43;2.20;;;12.00;99.90;;;;;;4985944;28;20404;-32
2023/05/16 07:22:45;;;;;;;9.90;2.37;;;12.00;99.90;;;;;;5002423;28;20210;-32
2023/05/16 07:25:14;;;;;;;12.63;1.77;;;12.10;99.90;;;;;;4990303;28;20673;-32
2023/05/16 07:27:44;;;;;;;10.87;1.73;;;12.10;99.90;;;;;;4997462;28;20717;-32
2023/05/16 07:30:16;;;;;;;8.80;1.70;;;12.20;99.90;;;;;;4979212;28;20209;-32
2023/05/16 07:32:46;;;;;;;7.93;1.70;;;12.30;99.90;;;;;;4987815;28;20241;-32
2023/05/16 07:35:18;;;;;;;12.23;1.90;;;12.30;99.90;;;;;;4985846;28;20739;-32
2023/05/16 07:37:46;;;;;;;5.53;1.50;;;12.40;99.90;;;;;;4985903;28;20252;-32
2023/05/16 07:40:17;;;;;;;9.33;1.47;;;12.50;99.90;;;;;;4985932;28;20214;-32
2023/05/16 07:42:44;;;;;;;8.70;1.63;;;12.50;99.90;;;;;;4994074;28;20623;-32
2023/05/16 07:45:16;;;;;;;4.23;1.13;;;12.60;99.90;;;;;;4983843;28;20592;-32
2023/05/16 07:47:48;;;;;;;5.20;1.60;;;12.60;99.90;;;;;;4988026;28;20292;-32
2023/05/16 07:50:20;;;;;;;7.43;1.57;;;12.60;99.90;;;;;;4998895;28;20208;-32
2023/05/16 07:52:51;;;;;;;5.30;1.30;;;12.70;99.90;;;;;;4988365;28;20634;-32
2023/05/16 07:55:18;;;;;;;6.77;1.10;;;12.70;99.90;;;;;;5004893;28;20197;-32
2023/05/16 07:57:45;;;;;;;5.97;1.43;;;12.70;99.90;;;;;;5001704;28;20792;-32
2023/05/16 08:00:15;;;;;;;4.93;0.97;;;12.80;99.90;;;;;;4989050;28;20295;-32
2023/05/16 08:02:44;;;;;;;7.77;1.50;;;12.70;99.90;;;;;;4982701;28;20253;-33
2023/05/16 08:05:17;;;;;;;7.37;1.23;;;12.80;99.90;;;;;;4992046;28;20213;-33
2023/05/16 08:07:44;;;;;;;6.00;1.47;;;12.80;99.90;;;;;;4988886;28;20268;-32
2023/05/16 08:10:17;;;;;;;5.63;1.33;;;12.90;99.90;;;;;;4983609;28;20712;-33
2023/05/16 08:12:45;;;;;;;5.30;1.50;;;12.90;99.90;;;;;;4988272;28;20202;-33
2023/05/16 08:15:12;;;;;;;8.20;1.33;;;12.90;99.90;;;;;;5000295;28;20237;-32
2023/05/16 08:17:39;;;;;;;6.13;1.47;;;12.90;99.90;;;;;;4991174;28;20214;-33
2023/05/16 08:20:07;;;;;;;11.33;1.87;;;13.00;99.90;;;;;;4983269;28;20530;-32
2023/05/16 08:22:36;;;;;;;8.50;2.13;;;13.00;99.90;;;;;;4991843;28;20703;-32
2023/05/16 08:25:07;;;;;;;8.13;1.90;;;13.00;99.90;;;;;;4985347;28;20218;-33
2023/05/16 08:27:35;;;;;;;5.77;1.57;;;12.90;99.90;;;;;;4989514;28;20222;-32
2023/05/16 08:30:08;;;;;;;7.60;1.23;;;12.90;99.90;;;;;;4987476;28;20740;-32
2023/05/16 08:32:43;;;;;;;6.53;1.13;;;12.90;99.90;;;;;;4992694;28;20357;-32
2023/05/16 08:35:13;;;;;;;5.17;1.27;;;12.90;99.90;;;;;;5000194;28;20233;-32
2023/05/16 08:37:45;;;;;;;7.67;1.40;;;13.00;99.90;;;;;;4998685;28;20225;-32
2023/05/16 08:40:14;;;;;;;4.77;1.10;;;13.00;99.90;;;;;;4984413;28;20261;-33
2023/05/16 08:42:44;;;;;;;4.47;1.07;;;13.10;99.90;;;;;;4991751;28;20197;-32
2023/05/16 08:45:16;;;;;;;4.07;1.03;;;13.00;99.90;;;;;;4989336;28;20857;-32
2023/05/16 08:47:50;;;;;;;5.77;1.30;;;13.10;99.90;;;;;;4987226;28;20625;-33
2023/05/16 08:50:19;;;;;;;6.17;1.43;;;13.10;99.90;;;;;;4994700;28;20233;-32
2023/05/16 08:52:54;;;;;;;4.77;1.30;;;13.10;99.90;;;;;;4988362;28;20214;-32
2023/05/16 08:55:23;;;;;;;5.27;1.20;;;13.10;99.90;;;;;;4992121;28;20693;-32
2023/05/16 08:57:51;;;;;;;11.17;1.80;;;13.20;99.90;;;;;;4987325;28;20352;-32
2023/05/16 09:00:21;;;;;;;8.00;1.37;;;13.30;99.90;;;;;;5001688;28;20206;-32
2023/05/16 09:02:52;;;;;;;6.90;1.30;;;13.30;99.90;;;;;;4999076;28;20225;-33
2023/05/16 09:05:21;;;;;;;7.23;1.37;;;13.40;99.90;;;;;;4990336;28;20296;-32
2023/05/16 09:07:52;;;;;;;5.00;1.73;;;13.50;99.90;;;;;;4985041;28;20210;-32
2023/05/16 09:10:27;;;;;;;6.83;1.50;;;13.50;99.90;;;;;;4989016;28;20206;-32
2023/05/16 09:12:54;;;;;;;5.83;1.50;;;13.60;99.90;;;;;;4996525;28;20232;-32
2023/05/16 09:15:30;;;;;;;5.47;1.30;;;13.60;99.90;;;;;;4989419;28;20295;-33
2023/05/16 09:18:00;;;;;;;6.20;1.63;;;13.60;99.90;;;;;;4982233;28;21405;-32
2023/05/16 09:20:27;;;;;;;9.37;1.90;;;13.60;99.90;;;;;;4988476;28;20738;-33
2023/05/16 09:22:59;;;;;;;6.73;1.53;;;13.60;99.90;;;;;;4997743;28;20198;-32
2023/05/16 09:25:29;;;;;;;5.67;1.30;;;13.60;99.90;;;;;;4982803;28;20297;-32
2023/05/16 09:28:00;;;;;;;7.17;1.63;;;13.70;99.90;;;;;;4990957;28;20206;-32
2023/05/16 09:30:30;;;;;;;6.10;1.50;;;13.70;99.90;;;;;;4994715;28;20644;-32
2023/05/16 09:33:00;;;;;;;5.67;1.43;;;13.70;99.90;;;;;;4995188;28;20412;-32
2023/05/16 09:35:28;;;;;;;9.47;1.70;;;13.70;99.90;;;;;;4994692;28;20391;-32
2023/05/16 09:38:03;;;;;;;3.80;1.20;;;13.70;99.90;;;;;;4997844;28;20725;-32
2023/05/16 09:40:32;;;;;;;5.90;1.40;;;13.80;99.90;;;;;;4993225;28;20194;-32
2023/05/16 09:43:07;;;;;;;5.83;1.30;;;13.80;99.90;;;;;;4991120;28;20213;-32
2023/05/16 09:45:38;;;;;;;6.90;2.30;;;13.80;99.90;;;;;;4984972;28;20560;-32
2023/05/16 09:48:12;;;;;;;4.57;1.87;;;13.80;99.90;;;;;;4982484;28;20608;-32
2023/05/16 09:50:46;;;;;;;7.37;1.73;;;13.90;99.90;;;;;;4981598;28;20198;-32
2023/05/16 09:53:13;;;;;;;7.53;1.73;;;14.00;99.90;;;;;;4994967;28;20212;-32
2023/05/16 09:55:41;;;;;;;5.73;1.33;;;14.00;99.90;;;;;;4986682;28;20226;-32
2023/05/16 09:58:08;;;;;;;8.67;1.77;;;14.10;99.90;;;;;;4982297;28;20244;-32
2023/05/16 10:00:37;;;;;;;7.43;1.40;;;14.20;99.90;;;;;;4985473;28;20627;-33
2023/05/16 10:03:07;;;;;;;4.70;1.60;;;14.30;99.90;;;;;;4972383;28;20208;-32
2023/05/16 10:05:35;;;;;;;3.80;1.30;;;14.30;99.90;;;;;;4992077;28;20494;-32
2023/05/16 10:08:04;;;;;;;6.23;1.40;;;14.40;99.90;;;;;;4999785;28;20240;-32
2023/05/16 10:10:37;;;;;;;5.63;1.30;;;14.40;99.90;;;;;;4991412;28;20214;-32
2023/05/16 10:13:09;;;;;;;5.27;1.20;;;14.40;99.90;;;;;;5000335;28;20340;-32
2023/05/16 10:15:37;;;;;;;7.23;1.80;;;14.40;99.90;;;;;;4991522;28;20633;-33
2023/05/16 10:18:11;;;;;;;8.43;1.60;;;14.50;99.90;;;;;;4984991;28;20206;-32
2023/05/16 10:20:47;;;;;;;4.20;1.00;;;14.40;99.90;;;;;;4993456;28;20679;-32
2023/05/16 10:23:22;;;;;;;8.27;1.57;;;14.50;99.90;;;;;;4986484;28;20208;-32
2023/05/16 10:25:49;;;;;;;6.00;1.87;;;14.50;99.90;;;;;;4994167;28;21031;-32
2023/05/16 10:28:19;;;;;;;5.07;1.33;;;14.50;99.90;;;;;;4983872;28;20222;-32
2023/05/16 10:30:47;;;;;;;4.10;1.00;;;14.50;99.90;;;;;;4992905;28;20565;-32
2023/05/16 10:33:18;;;;;;;7.10;1.37;;;14.60;99.90;;;;;;4998855;28;20285;-32
2023/05/16 10:35:49;;;;;;;6.10;1.10;;;14.60;99.90;;;;;;4985347;28;20284;-32
2023/05/16 10:38:23;;;;;;;3.60;1.00;;;14.60;99.90;;;;;;4985076;28;22097;-32
2023/05/16 10:40:51;;;;;;;3.97;1.03;;;14.70;99.90;;;;;;4961336;28;20214;-32
2023/05/16 10:43:29;;;;;;;3.13;0.97;;;14.80;99.90;;;;;;4994511;28;20230;-32
2023/05/16 10:46:01;;;;;;;3.63;1.33;;;14.80;99.90;;;;;;4993072;28;20578;-32
2023/05/16 10:48:39;;;;;;;6.00;1.10;;;14.90;99.90;;;;;;4993357;28;20245;-32
2023/05/16 10:51:22;;;;;;;3.10;0.97;;;14.90;99.90;;;;;;4989917;28;21103;-32
2023/05/16 10:53:55;;;;;;;4.63;1.07;;;14.90;99.90;;;;;;4996510;28;20198;-32
2023/05/16 10:56:25;;;;;;;3.57;1.07;;;14.90;99.90;;;;;;5003908;28;20209;-32
2023/05/16 10:58:55;;;;;;;4.40;0.97;;;14.90;99.90;;;;;;4985684;28;20222;-32
2023/05/16 11:01:33;;;;;;;5.17;1.10;;;14.90;99.90;;;;;;4987567;28;20209;-32
2023/05/16 11:04:09;;;;;;;4.37;1.00;;;15.00;99.90;;;;;;4986814;28;20213;-32
2023/05/16 11:06:39;;;;;;;3.77;0.97;;;15.10;99.90;;;;;;4996808;28;20279;-32
2023/05/16 11:09:14;;;;;;;3.93;1.00;;;15.10;99.90;;;;;;4998103;28;20572;-32
2023/05/16 11:11:51;;;;;;;2.90;1.20;;;15.10;99.90;;;;;;4997736;28;20201;-32
2023/05/16 11:14:31;;;;;;;4.87;1.27;;;15.10;99.90;;;;;;4995616;28;20232;-32
2023/05/16 11:17:08;;;;;;;3.97;0.93;;;15.10;99.90;;;;;;5001267;28;20202;-32
2023/05/16 11:19:54;;;;;;;2.63;1.10;;;15.20;99.90;;;;;;4988478;28;20197;-32
2023/05/16 11:22:33;;;;;;;4.50;1.10;;;15.20;99.90;;;;;;4999879;28;20331;-32
2023/05/16 11:25:05;;;;;;;5.20;0.90;;;15.20;99.90;;;;;;4986148;28;20233;-32
2023/05/16 11:27:45;;;;;;;4.20;1.13;;;15.20;99.90;;;;;;5001813;28;20667;-32
2023/05/16 11:30:14;;;;;;;6.22;1.20;;;15.20;99.90;;;;;;4988343;28;20221;-32
2023/05/16 11:32:49;;;;;;;4.10;0.90;;;15.20;99.90;;;;;;4987429;28;20210;-36
2023/05/16 11:35:17;;;;;;;5.23;0.90;;;15.20;99.90;;;;;;4985253;28;20325;-32
2023/05/16 11:37:49;;;;;;;2.17;1.10;;;15.20;99.90;;;;;;4984006;28;20340;-32
2023/05/16 11:40:19;;;;;;;6.67;1.40;;;15.30;99.90;;;;;;4983905;28;20210;-32
2023/05/16 11:42:50;;;;;;;3.67;1.30;;;15.30;99.90;;;;;;4998749;28;20216;-32
2023/05/16 11:45:23;;;;;;;5.03;1.23;;;15.30;99.90;;;;;;4986429;28;20755;-32
2023/05/16 11:47:51;;;;;;;5.03;1.33;;;15.40;99.90;;;;;;4999270;28;20403;-32
2023/05/16 11:50:23;;;;;;;5.30;1.17;;;15.40;99.90;;;;;;4998450;28;20237;-32
2023/05/16 11:52:56;;;;;;;4.23;1.00;;;15.50;99.90;;;;;;4988268;28;20218;-32
2023/05/16 11:55:27;;;;;;;3.00;0.93;;;15.60;99.90;;;;;;4986492;28;20240;-32
2023/05/16 11:58:11;;;;;;;5.13;1.43;;;15.60;99.90;;;;;;4986850;28;21082;-32
2023/05/16 12:00:47;;;;;;;4.73;1.23;;;15.70;99.90;;;;;;5000314;28;20202;-32
2023/05/16 12:03:16;;;;;;;4.63;1.13;;;15.80;99.90;;;;;;5004339;28;20965;-32
2023/05/16 12:05:56;;;;;;;3.22;1.20;;;15.80;99.90;;;;;;5000895;28;20221;-33
2023/05/16 12:08:24;;;;;;;5.13;1.50;;;15.80;99.90;;;;;;5004063;28;20717;-32
2023/05/16 12:10:52;;;;;;;2.33;1.17;;;15.90;99.90;;;;;;4988222;28;20679;-32
2023/05/16 12:13:25;;;;;;;3.45;1.05;;;15.90;99.90;;;;;;5001832;28;20253;-32
2023/05/16 12:15:55;;;;;;;5.10;1.20;;;16.00;99.90;;;;;;4995258;28;20695;-32
2023/05/16 12:18:23;;;;;;;3.90;1.30;;;16.10;99.90;;;;;;4984699;28;20210;-32
2023/05/16 12:20:53;;;;;;;3.33;1.07;;;16.10;99.90;;;;;;4986639;28;20202;-32
2023/05/16 12:23:26;;;;;;;4.30;1.10;;;16.20;99.90;;;;;;4983458;28;20229;-32
2023/05/16 12:25:56;;;;;;;3.43;1.10;;;16.20;99.90;;;;;;4987137;28;20210;-32
2023/05/16 12:28:34;;;;;;;4.57;1.30;;;16.20;99.90;;;;;;4985921;28;20957;-32
2023/05/16 12:31:01;;;;;;;4.47;1.17;;;16.20;99.90;;;;;;4987056;28;20218;-32
2023/05/16 12:33:36;;;;;;;6.63;1.20;;;16.20;99.90;;;;;;4983418;28;20241;-32
2023/05/16 12:36:04;;;;;;;3.10;1.30;;;16.20;99.90;;;;;;4985234;28;20357;-32
2023/05/16 12:38:31;;;;;;;3.13;1.00;;;16.20;99.90;;;;;;4983762;28;20296;-32
2023/05/16 12:41:01;;;;;;;3.45;1.20;;;16.20;99.90;;;;;;4986734;28;20332;-32
2023/05/16 12:43:33;;;;;;;4.40;1.20;;;16.30;99.90;;;;;;5000424;28;20225;-32
2023/05/16 12:46:10;;;;;;;4.43;1.10;;;16.30;99.90;;;;;;4992131;28;20644;-33
2023/05/16 12:48:38;;;;;;;5.05;1.50;;;16.30;99.90;;;;;;4990513;28;20221;-32
2023/05/16 12:51:15;;;;;;;4.40;1.20;;;16.40;99.90;;;;;;4985154;28;20205;-32
2023/05/16 12:53:47;;;;;;;2.57;1.00;;;16.40;99.90;;;;;;4982246;28;20292;-32
2023/05/16 12:56:35;;;;;;;4.77;1.37;;;16.40;99.90;;;;;;4983665;28;20234;-32
2023/05/16 12:59:05;;;;;;;3.77;1.00;;;16.40;99.90;;;;;;5002015;28;20225;-32
2023/05/16 13:01:35;;;;;;;3.13;1.60;;;16.40;99.90;;;;;;4994623;28;20832;-32